sensor_id;sensor_type;location;lat;lon;timestamp;P1;durP1;ratioP1;P2;durP2;ratioP2
45049;SDS011;61798;48.048;-1.928;2024-03-08T00:00:34;13.65;;;6.50;;
45049;SDS011;61798;48.048;-1.928;2024-03-08T00:02:41;12.55;;;5.80;;
45049;SDS011;61798;48.048;-1.928;2024-03-08T00:04:47;12.43;;;6.85;;
45049;SDS011;61798;48.048;-1.928;2024-03-08T00:06:53;13.05;;;7.10;;
45049;SDS011;61798;48.048;-1.928;2024-03-08T00:08:59;12.80;;;6.32;;
45049;SDS011;61798;48.048;-1.928;2024-03-08T00:11:05;9.95;;;6.25;;
45049;SDS011;61798;48.048;-1.928;2024-03-08T00:13:11;11.93;;;6.07;;
45049;SDS011;61798;48.048;-1.928;2024-03-08T00:15:17;11.35;;;6.65;;
45049;SDS011;61798;48.048;-1.928;2024-03-08T00:17:23;13.90;;;6.32;;
45049;SDS011;61798;48.048;-1.928;2024-03-08T00:19:28;11.85;;;6.57;;
45049;SDS011;61798;48.048;-1.928;2024-03-08T00:21:34;11.85;;;5.68;;
45049;SDS011;61798;48.048;-1.928;2024-03-08T00:23:41;11.30;;;5.90;;
45049;SDS011;61798;48.048;-1.928;2024-03-08T00:25:47;14.77;;;6.88;;
45049;SDS011;61798;48.048;-1.928;2024-03-08T00:27:52;12.05;;;5.97;;
45049;SDS011;61798;48.048;-1.928;2024-03-08T00:30:01;13.68;;;6.68;;
45049;SDS011;61798;48.048;-1.928;2024-03-08T00:32:08;15.23;;;6.70;;
45049;SDS011;61798;48.048;-1.928;2024-03-08T00:34:14;13.63;;;6.60;;
45049;SDS011;61798;48.048;-1.928;2024-03-08T00:36:20;14.63;;;6.35;;
45049;SDS011;61798;48.048;-1.928;2024-03-08T00:38:26;16.15;;;6.55;;
45049;SDS011;61798;48.048;-1.928;2024-03-08T00:40:31;12.65;;;6.13;;
45049;SDS011;61798;48.048;-1.928;2024-03-08T00:42:37;13.32;;;6.55;;
45049;SDS011;61798;48.048;-1.928;2024-03-08T00:44:43;12.60;;;6.32;;
45049;SDS011;61798;48.048;-1.928;2024-03-08T00:46:50;13.50;;;6.43;;
45049;SDS011;61798;48.048;-1.928;2024-03-08T00:48:56;13.70;;;6.25;;
45049;SDS011;61798;48.048;-1.928;2024-03-08T00:51:02;14.40;;;6.93;;
45049;SDS011;61798;48.048;-1.928;2024-03-08T00:53:08;16.20;;;6.65;;
45049;SDS011;61798;48.048;-1.928;2024-03-08T00:55:16;15.55;;;6.30;;
45049;SDS011;61798;48.048;-1.928;2024-03-08T00:57:22;14.05;;;6.75;;
45049;SDS011;61798;48.048;-1.928;2024-03-08T00:59:28;12.30;;;5.97;;
45049;SDS011;61798;48.048;-1.928;2024-03-08T01:01:35;11.80;;;6.72;;
45049;SDS011;61798;48.048;-1.928;2024-03-08T01:03:42;13.30;;;5.93;;
45049;SDS011;61798;48.048;-1.928;2024-03-08T01:05:48;10.98;;;5.78;;
45049;SDS011;61798;48.048;-1.928;2024-03-08T01:07:54;12.80;;;6.25;;
45049;SDS011;61798;48.048;-1.928;2024-03-08T01:10:01;14.48;;;6.43;;
45049;SDS011;61798;48.048;-1.928;2024-03-08T01:12:07;13.98;;;6.70;;
45049;SDS011;61798;48.048;-1.928;2024-03-08T01:14:13;15.15;;;6.30;;
45049;SDS011;61798;48.048;-1.928;2024-03-08T01:16:19;14.30;;;6.78;;
45049;SDS011;61798;48.048;-1.928;2024-03-08T01:18:27;12.88;;;6.45;;
45049;SDS011;61798;48.048;-1.928;2024-03-08T01:20:32;16.58;;;6.70;;
45049;SDS011;61798;48.048;-1.928;2024-03-08T01:22:40;15.32;;;6.65;;
45049;SDS011;61798;48.048;-1.928;2024-03-08T01:24:46;13.40;;;7.15;;
45049;SDS011;61798;48.048;-1.928;2024-03-08T01:26:52;15.57;;;6.88;;
45049;SDS011;61798;48.048;-1.928;2024-03-08T01:28:58;17.50;;;7.28;;
45049;SDS011;61798;48.048;-1.928;2024-03-08T01:31:04;12.68;;;6.53;;
45049;SDS011;61798;48.048;-1.928;2024-03-08T01:33:11;13.05;;;6.55;;
45049;SDS011;61798;48.048;-1.928;2024-03-08T01:35:17;13.38;;;6.47;;
45049;SDS011;61798;48.048;-1.928;2024-03-08T01:37:23;12.27;;;5.68;;
45049;SDS011;61798;48.048;-1.928;2024-03-08T01:39:29;17.90;;;6.97;;
45049;SDS011;61798;48.048;-1.928;2024-03-08T01:41:35;13.50;;;6.60;;
45049;SDS011;61798;48.048;-1.928;2024-03-08T01:43:41;11.85;;;6.00;;
45049;SDS011;61798;48.048;-1.928;2024-03-08T01:45:47;13.35;;;6.47;;
45049;SDS011;61798;48.048;-1.928;2024-03-08T01:47:53;14.43;;;6.65;;
45049;SDS011;61798;48.048;-1.928;2024-03-08T01:49:59;16.08;;;7.00;;
45049;SDS011;61798;48.048;-1.928;2024-03-08T01:52:08;13.48;;;6.65;;
45049;SDS011;61798;48.048;-1.928;2024-03-08T01:54:15;14.23;;;5.95;;
45049;SDS011;61798;48.048;-1.928;2024-03-08T01:56:24;14.75;;;6.72;;
45049;SDS011;61798;48.048;-1.928;2024-03-08T01:58:30;14.35;;;6.32;;
45049;SDS011;61798;48.048;-1.928;2024-03-08T02:00:38;13.63;;;6.05;;
45049;SDS011;61798;48.048;-1.928;2024-03-08T02:02:46;12.38;;;6.10;;
45049;SDS011;61798;48.048;-1.928;2024-03-08T02:04:53;12.00;;;6.05;;
45049;SDS011;61798;48.048;-1.928;2024-03-08T02:06:59;14.73;;;6.05;;
45049;SDS011;61798;48.048;-1.928;2024-03-08T02:09:05;17.88;;;7.10;;
45049;SDS011;61798;48.048;-1.928;2024-03-08T02:11:12;12.43;;;7.13;;
45049;SDS011;61798;48.048;-1.928;2024-03-08T02:13:18;16.98;;;6.80;;
45049;SDS011;61798;48.048;-1.928;2024-03-08T02:15:24;11.25;;;6.07;;
45049;SDS011;61798;48.048;-1.928;2024-03-08T02:17:31;12.38;;;5.85;;
45049;SDS011;61798;48.048;-1.928;2024-03-08T02:19:38;14.52;;;7.15;;
45049;SDS011;61798;48.048;-1.928;2024-03-08T02:21:44;13.82;;;6.95;;
45049;SDS011;61798;48.048;-1.928;2024-03-08T02:23:53;14.38;;;6.90;;
45049;SDS011;61798;48.048;-1.928;2024-03-08T02:25:59;12.88;;;6.60;;
45049;SDS011;61798;48.048;-1.928;2024-03-08T02:28:05;10.52;;;5.55;;
45049;SDS011;61798;48.048;-1.928;2024-03-08T02:30:11;14.45;;;5.97;;
45049;SDS011;61798;48.048;-1.928;2024-03-08T02:32:17;14.90;;;6.60;;
45049;SDS011;61798;48.048;-1.928;2024-03-08T02:34:23;12.45;;;6.13;;
45049;SDS011;61798;48.048;-1.928;2024-03-08T02:36:29;15.10;;;6.50;;
45049;SDS011;61798;48.048;-1.928;2024-03-08T02:38:35;11.38;;;6.38;;
45049;SDS011;61798;48.048;-1.928;2024-03-08T02:40:41;12.52;;;6.30;;
45049;SDS011;61798;48.048;-1.928;2024-03-08T02:42:50;12.70;;;6.57;;
45049;SDS011;61798;48.048;-1.928;2024-03-08T02:44:56;17.35;;;6.28;;
45049;SDS011;61798;48.048;-1.928;2024-03-08T02:47:01;14.07;;;6.30;;
45049;SDS011;61798;48.048;-1.928;2024-03-08T02:49:07;14.32;;;6.95;;
45049;SDS011;61798;48.048;-1.928;2024-03-08T02:51:13;14.45;;;6.57;;
45049;SDS011;61798;48.048;-1.928;2024-03-08T02:53:21;17.98;;;6.78;;
45049;SDS011;61798;48.048;-1.928;2024-03-08T02:55:27;13.00;;;5.80;;
45049;SDS011;61798;48.048;-1.928;2024-03-08T02:57:33;14.48;;;6.97;;
45049;SDS011;61798;48.048;-1.928;2024-03-08T02:59:39;12.60;;;6.15;;
45049;SDS011;61798;48.048;-1.928;2024-03-08T03:01:45;14.10;;;6.28;;
45049;SDS011;61798;48.048;-1.928;2024-03-08T03:03:51;12.82;;;6.22;;
45049;SDS011;61798;48.048;-1.928;2024-03-08T03:05:57;14.55;;;6.80;;
45049;SDS011;61798;48.048;-1.928;2024-03-08T03:08:02;12.63;;;6.70;;
45049;SDS011;61798;48.048;-1.928;2024-03-08T03:10:14;17.30;;;6.95;;
45049;SDS011;61798;48.048;-1.928;2024-03-08T03:12:24;11.23;;;6.10;;
45049;SDS011;61798;48.048;-1.928;2024-03-08T03:14:30;14.93;;;6.72;;
45049;SDS011;61798;48.048;-1.928;2024-03-08T03:16:36;13.15;;;6.78;;
45049;SDS011;61798;48.048;-1.928;2024-03-08T03:18:42;10.77;;;6.38;;
45049;SDS011;61798;48.048;-1.928;2024-03-08T03:20:48;13.40;;;6.45;;
45049;SDS011;61798;48.048;-1.928;2024-03-08T03:22:54;17.55;;;7.40;;
45049;SDS011;61798;48.048;-1.928;2024-03-08T03:25:02;12.75;;;6.40;;
45049;SDS011;61798;48.048;-1.928;2024-03-08T03:27:09;11.80;;;6.78;;
45049;SDS011;61798;48.048;-1.928;2024-03-08T03:29:18;11.57;;;6.05;;
45049;SDS011;61798;48.048;-1.928;2024-03-08T03:31:24;12.35;;;6.15;;
45049;SDS011;61798;48.048;-1.928;2024-03-08T03:33:31;11.68;;;6.32;;
45049;SDS011;61798;48.048;-1.928;2024-03-08T03:35:39;14.63;;;6.28;;
45049;SDS011;61798;48.048;-1.928;2024-03-08T03:37:47;12.02;;;6.95;;
45049;SDS011;61798;48.048;-1.928;2024-03-08T03:40:12;14.82;;;7.05;;
45049;SDS011;61798;48.048;-1.928;2024-03-08T03:42:19;16.60;;;7.40;;
45049;SDS011;61798;48.048;-1.928;2024-03-08T03:44:25;14.48;;;6.50;;
45049;SDS011;61798;48.048;-1.928;2024-03-08T03:46:31;12.27;;;6.15;;
45049;SDS011;61798;48.048;-1.928;2024-03-08T03:48:36;12.77;;;6.53;;
45049;SDS011;61798;48.048;-1.928;2024-03-08T03:50:42;11.18;;;6.72;;
45049;SDS011;61798;48.048;-1.928;2024-03-08T03:52:49;13.40;;;6.18;;
45049;SDS011;61798;48.048;-1.928;2024-03-08T03:54:55;12.65;;;6.57;;
45049;SDS011;61798;48.048;-1.928;2024-03-08T03:57:02;12.88;;;6.68;;
45049;SDS011;61798;48.048;-1.928;2024-03-08T03:59:08;11.93;;;6.65;;
45049;SDS011;61798;48.048;-1.928;2024-03-08T04:01:14;15.80;;;7.13;;
45049;SDS011;61798;48.048;-1.928;2024-03-08T04:03:19;13.70;;;6.65;;
45049;SDS011;61798;48.048;-1.928;2024-03-08T04:05:25;13.18;;;6.53;;
45049;SDS011;61798;48.048;-1.928;2024-03-08T04:07:31;15.40;;;6.60;;
45049;SDS011;61798;48.048;-1.928;2024-03-08T04:09:37;13.90;;;6.13;;
45049;SDS011;61798;48.048;-1.928;2024-03-08T04:11:43;12.77;;;6.38;;
45049;SDS011;61798;48.048;-1.928;2024-03-08T04:13:49;15.30;;;7.10;;
45049;SDS011;61798;48.048;-1.928;2024-03-08T04:15:55;12.43;;;5.90;;
45049;SDS011;61798;48.048;-1.928;2024-03-08T04:18:00;12.85;;;6.75;;
45049;SDS011;61798;48.048;-1.928;2024-03-08T04:20:07;12.15;;;5.55;;
45049;SDS011;61798;48.048;-1.928;2024-03-08T04:22:15;12.82;;;6.05;;
45049;SDS011;61798;48.048;-1.928;2024-03-08T04:24:22;13.70;;;6.45;;
45049;SDS011;61798;48.048;-1.928;2024-03-08T04:26:28;15.80;;;6.82;;
45049;SDS011;61798;48.048;-1.928;2024-03-08T04:28:34;12.48;;;6.28;;
45049;SDS011;61798;48.048;-1.928;2024-03-08T04:30:40;13.02;;;6.30;;
45049;SDS011;61798;48.048;-1.928;2024-03-08T04:32:45;13.63;;;6.50;;
45049;SDS011;61798;48.048;-1.928;2024-03-08T04:34:52;18.33;;;6.97;;
45049;SDS011;61798;48.048;-1.928;2024-03-08T04:36:58;11.20;;;6.32;;
45049;SDS011;61798;48.048;-1.928;2024-03-08T04:39:04;13.18;;;6.78;;
45049;SDS011;61798;48.048;-1.928;2024-03-08T04:41:10;12.88;;;6.38;;
45049;SDS011;61798;48.048;-1.928;2024-03-08T04:43:16;12.95;;;6.80;;
45049;SDS011;61798;48.048;-1.928;2024-03-08T04:45:24;13.38;;;6.72;;
45049;SDS011;61798;48.048;-1.928;2024-03-08T04:47:31;15.65;;;6.53;;
45049;SDS011;61798;48.048;-1.928;2024-03-08T04:49:37;15.82;;;6.45;;
45049;SDS011;61798;48.048;-1.928;2024-03-08T04:51:42;14.48;;;6.65;;
45049;SDS011;61798;48.048;-1.928;2024-03-08T04:53:50;12.07;;;6.72;;
45049;SDS011;61798;48.048;-1.928;2024-03-08T04:55:56;13.07;;;6.32;;
45049;SDS011;61798;48.048;-1.928;2024-03-08T04:58:03;17.52;;;7.07;;
45049;SDS011;61798;48.048;-1.928;2024-03-08T05:00:13;16.73;;;7.43;;
45049;SDS011;61798;48.048;-1.928;2024-03-08T05:02:20;16.67;;;7.10;;
45049;SDS011;61798;48.048;-1.928;2024-03-08T05:04:28;12.98;;;6.65;;
45049;SDS011;61798;48.048;-1.928;2024-03-08T05:06:34;16.23;;;7.15;;
45049;SDS011;61798;48.048;-1.928;2024-03-08T05:08:40;13.23;;;6.45;;
45049;SDS011;61798;48.048;-1.928;2024-03-08T05:10:46;13.95;;;6.75;;
45049;SDS011;61798;48.048;-1.928;2024-03-08T05:12:52;16.55;;;6.80;;
45049;SDS011;61798;48.048;-1.928;2024-03-08T05:14:58;13.45;;;6.38;;
45049;SDS011;61798;48.048;-1.928;2024-03-08T05:17:04;12.25;;;6.45;;
45049;SDS011;61798;48.048;-1.928;2024-03-08T05:19:12;14.48;;;7.20;;
45049;SDS011;61798;48.048;-1.928;2024-03-08T05:21:18;14.07;;;6.53;;
45049;SDS011;61798;48.048;-1.928;2024-03-08T05:23:25;16.90;;;6.70;;
45049;SDS011;61798;48.048;-1.928;2024-03-08T05:25:31;13.57;;;6.72;;
45049;SDS011;61798;48.048;-1.928;2024-03-08T05:27:37;14.82;;;6.30;;
45049;SDS011;61798;48.048;-1.928;2024-03-08T05:29:43;12.90;;;6.05;;
45049;SDS011;61798;48.048;-1.928;2024-03-08T05:31:49;12.45;;;7.45;;
45049;SDS011;61798;48.048;-1.928;2024-03-08T05:33:56;13.93;;;6.75;;
45049;SDS011;61798;48.048;-1.928;2024-03-08T05:36:01;14.10;;;6.38;;
45049;SDS011;61798;48.048;-1.928;2024-03-08T05:38:08;10.85;;;6.25;;
45049;SDS011;61798;48.048;-1.928;2024-03-08T05:40:13;11.65;;;5.80;;
45049;SDS011;61798;48.048;-1.928;2024-03-08T05:42:20;11.57;;;6.03;;
45049;SDS011;61798;48.048;-1.928;2024-03-08T05:44:26;10.80;;;6.28;;
45049;SDS011;61798;48.048;-1.928;2024-03-08T05:46:34;11.50;;;6.03;;
45049;SDS011;61798;48.048;-1.928;2024-03-08T05:48:43;11.05;;;5.97;;
45049;SDS011;61798;48.048;-1.928;2024-03-08T05:50:49;10.63;;;6.18;;
45049;SDS011;61798;48.048;-1.928;2024-03-08T05:52:55;14.43;;;6.72;;
45049;SDS011;61798;48.048;-1.928;2024-03-08T05:55:00;13.18;;;6.10;;
45049;SDS011;61798;48.048;-1.928;2024-03-08T05:57:06;10.38;;;5.93;;
45049;SDS011;61798;48.048;-1.928;2024-03-08T05:59:12;14.73;;;6.65;;
45049;SDS011;61798;48.048;-1.928;2024-03-08T06:01:18;13.45;;;6.25;;
45049;SDS011;61798;48.048;-1.928;2024-03-08T06:03:24;13.43;;;6.50;;
45049;SDS011;61798;48.048;-1.928;2024-03-08T06:05:30;12.65;;;6.43;;
45049;SDS011;61798;48.048;-1.928;2024-03-08T06:07:36;13.88;;;6.13;;
45049;SDS011;61798;48.048;-1.928;2024-03-08T06:09:45;16.08;;;6.70;;
45049;SDS011;61798;48.048;-1.928;2024-03-08T06:11:53;12.88;;;6.07;;
45049;SDS011;61798;48.048;-1.928;2024-03-08T06:13:59;12.93;;;6.88;;
45049;SDS011;61798;48.048;-1.928;2024-03-08T06:16:05;13.77;;;6.32;;
45049;SDS011;61798;48.048;-1.928;2024-03-08T06:18:13;12.80;;;6.13;;
45049;SDS011;61798;48.048;-1.928;2024-03-08T06:20:20;13.40;;;6.40;;
45049;SDS011;61798;48.048;-1.928;2024-03-08T06:22:26;17.23;;;6.32;;
45049;SDS011;61798;48.048;-1.928;2024-03-08T06:24:32;12.82;;;6.30;;
45049;SDS011;61798;48.048;-1.928;2024-03-08T06:26:37;14.90;;;6.63;;
45049;SDS011;61798;48.048;-1.928;2024-03-08T06:28:43;13.55;;;6.95;;
45049;SDS011;61798;48.048;-1.928;2024-03-08T06:30:49;14.90;;;6.38;;
45049;SDS011;61798;48.048;-1.928;2024-03-08T06:32:56;11.35;;;5.85;;
45049;SDS011;61798;48.048;-1.928;2024-03-08T06:35:03;13.13;;;6.65;;
45049;SDS011;61798;48.048;-1.928;2024-03-08T06:37:11;10.93;;;6.00;;
45049;SDS011;61798;48.048;-1.928;2024-03-08T06:39:17;10.00;;;5.60;;
45049;SDS011;61798;48.048;-1.928;2024-03-08T06:41:23;9.95;;;5.28;;
45049;SDS011;61798;48.048;-1.928;2024-03-08T06:43:29;10.25;;;6.45;;
45049;SDS011;61798;48.048;-1.928;2024-03-08T06:45:39;12.55;;;6.75;;
45049;SDS011;61798;48.048;-1.928;2024-03-08T06:47:46;13.55;;;6.03;;
45049;SDS011;61798;48.048;-1.928;2024-03-08T06:49:52;14.32;;;6.70;;
45049;SDS011;61798;48.048;-1.928;2024-03-08T06:51:57;16.33;;;7.75;;
45049;SDS011;61798;48.048;-1.928;2024-03-08T06:54:03;20.50;;;8.13;;
45049;SDS011;61798;48.048;-1.928;2024-03-08T06:56:14;16.92;;;7.65;;
45049;SDS011;61798;48.048;-1.928;2024-03-08T06:58:20;16.17;;;6.82;;
45049;SDS011;61798;48.048;-1.928;2024-03-08T07:00:26;15.93;;;8.05;;
45049;SDS011;61798;48.048;-1.928;2024-03-08T07:02:34;15.93;;;8.68;;
45049;SDS011;61798;48.048;-1.928;2024-03-08T07:04:41;13.45;;;7.65;;
45049;SDS011;61798;48.048;-1.928;2024-03-08T07:06:47;16.73;;;7.68;;
45049;SDS011;61798;48.048;-1.928;2024-03-08T07:08:55;16.63;;;7.97;;
45049;SDS011;61798;48.048;-1.928;2024-03-08T07:11:01;18.38;;;9.07;;
45049;SDS011;61798;48.048;-1.928;2024-03-08T07:13:07;18.30;;;9.18;;
45049;SDS011;61798;48.048;-1.928;2024-03-08T07:15:13;16.65;;;8.10;;
45049;SDS011;61798;48.048;-1.928;2024-03-08T07:17:20;21.42;;;10.02;;
45049;SDS011;61798;48.048;-1.928;2024-03-08T07:19:26;16.20;;;7.90;;
45049;SDS011;61798;48.048;-1.928;2024-03-08T07:21:32;19.95;;;9.10;;
45049;SDS011;61798;48.048;-1.928;2024-03-08T07:23:38;21.05;;;10.35;;
45049;SDS011;61798;48.048;-1.928;2024-03-08T07:26:08;17.92;;;9.73;;
45049;SDS011;61798;48.048;-1.928;2024-03-08T07:28:14;17.08;;;9.85;;
45049;SDS011;61798;48.048;-1.928;2024-03-08T07:30:20;16.05;;;8.30;;
45049;SDS011;61798;48.048;-1.928;2024-03-08T07:32:48;18.58;;;8.82;;
45049;SDS011;61798;48.048;-1.928;2024-03-08T07:34:54;15.05;;;7.43;;
45049;SDS011;61798;48.048;-1.928;2024-03-08T07:37:00;15.65;;;7.82;;
45049;SDS011;61798;48.048;-1.928;2024-03-08T07:39:06;16.50;;;8.20;;
45049;SDS011;61798;48.048;-1.928;2024-03-08T07:41:16;17.80;;;7.50;;
45049;SDS011;61798;48.048;-1.928;2024-03-08T07:43:22;18.33;;;8.23;;
45049;SDS011;61798;48.048;-1.928;2024-03-08T07:45:28;20.25;;;7.57;;
45049;SDS011;61798;48.048;-1.928;2024-03-08T07:47:34;19.50;;;7.95;;
45049;SDS011;61798;48.048;-1.928;2024-03-08T07:49:42;18.02;;;7.93;;
45049;SDS011;61798;48.048;-1.928;2024-03-08T07:51:49;16.90;;;8.18;;
45049;SDS011;61798;48.048;-1.928;2024-03-08T07:53:54;17.27;;;7.45;;
45049;SDS011;61798;48.048;-1.928;2024-03-08T07:56:00;15.13;;;8.20;;
45049;SDS011;61798;48.048;-1.928;2024-03-08T07:58:06;13.73;;;7.88;;
45049;SDS011;61798;48.048;-1.928;2024-03-08T08:00:12;17.58;;;8.40;;
45049;SDS011;61798;48.048;-1.928;2024-03-08T08:02:22;12.80;;;7.18;;
45049;SDS011;61798;48.048;-1.928;2024-03-08T08:04:28;16.13;;;6.65;;
45049;SDS011;61798;48.048;-1.928;2024-03-08T08:06:34;13.15;;;7.20;;
45049;SDS011;61798;48.048;-1.928;2024-03-08T08:08:42;14.40;;;6.93;;
45049;SDS011;61798;48.048;-1.928;2024-03-08T08:10:48;14.25;;;7.45;;
45049;SDS011;61798;48.048;-1.928;2024-03-08T08:12:55;16.70;;;7.13;;
45049;SDS011;61798;48.048;-1.928;2024-03-08T08:15:02;15.35;;;7.78;;
45049;SDS011;61798;48.048;-1.928;2024-03-08T08:17:08;18.45;;;7.68;;
45049;SDS011;61798;48.048;-1.928;2024-03-08T08:19:14;15.20;;;7.63;;
45049;SDS011;61798;48.048;-1.928;2024-03-08T08:21:20;15.45;;;7.80;;
45049;SDS011;61798;48.048;-1.928;2024-03-08T08:23:27;16.05;;;8.20;;
45049;SDS011;61798;48.048;-1.928;2024-03-08T08:25:34;14.73;;;8.10;;
45049;SDS011;61798;48.048;-1.928;2024-03-08T08:27:39;20.20;;;8.25;;
45049;SDS011;61798;48.048;-1.928;2024-03-08T08:29:45;16.33;;;8.20;;
45049;SDS011;61798;48.048;-1.928;2024-03-08T08:31:51;17.23;;;8.48;;
45049;SDS011;61798;48.048;-1.928;2024-03-08T08:33:58;18.13;;;9.30;;
45049;SDS011;61798;48.048;-1.928;2024-03-08T08:36:04;21.27;;;10.57;;
45049;SDS011;61798;48.048;-1.928;2024-03-08T08:38:10;20.00;;;10.80;;
45049;SDS011;61798;48.048;-1.928;2024-03-08T08:40:17;21.08;;;10.30;;
45049;SDS011;61798;48.048;-1.928;2024-03-08T08:42:24;17.60;;;8.93;;
45049;SDS011;61798;48.048;-1.928;2024-03-08T08:44:30;15.25;;;7.93;;
45049;SDS011;61798;48.048;-1.928;2024-03-08T08:46:36;18.40;;;8.82;;
45049;SDS011;61798;48.048;-1.928;2024-03-08T08:48:43;19.50;;;8.65;;
45049;SDS011;61798;48.048;-1.928;2024-03-08T08:50:50;20.85;;;10.27;;
45049;SDS011;61798;48.048;-1.928;2024-03-08T08:52:57;23.85;;;10.15;;
45049;SDS011;61798;48.048;-1.928;2024-03-08T08:55:04;25.33;;;10.95;;
45049;SDS011;61798;48.048;-1.928;2024-03-08T08:57:11;20.85;;;10.68;;
45049;SDS011;61798;48.048;-1.928;2024-03-08T08:59:17;21.88;;;9.23;;
45049;SDS011;61798;48.048;-1.928;2024-03-08T09:01:24;21.15;;;10.15;;
45049;SDS011;61798;48.048;-1.928;2024-03-08T09:03:30;30.20;;;12.88;;
45049;SDS011;61798;48.048;-1.928;2024-03-08T09:05:36;29.50;;;12.02;;
45049;SDS011;61798;48.048;-1.928;2024-03-08T09:07:45;30.77;;;12.73;;
45049;SDS011;61798;48.048;-1.928;2024-03-08T09:09:51;28.23;;;15.73;;
45049;SDS011;61798;48.048;-1.928;2024-03-08T09:12:02;15.48;;;8.40;;
45049;SDS011;61798;48.048;-1.928;2024-03-08T09:14:08;18.38;;;8.88;;
45049;SDS011;61798;48.048;-1.928;2024-03-08T09:16:14;17.10;;;8.60;;
45049;SDS011;61798;48.048;-1.928;2024-03-08T09:18:20;15.57;;;8.15;;
45049;SDS011;61798;48.048;-1.928;2024-03-08T09:20:26;14.63;;;7.68;;
45049;SDS011;61798;48.048;-1.928;2024-03-08T09:22:32;23.52;;;8.25;;
45049;SDS011;61798;48.048;-1.928;2024-03-08T09:24:38;14.10;;;7.10;;
45049;SDS011;61798;48.048;-1.928;2024-03-08T09:26:44;14.55;;;6.40;;
45049;SDS011;61798;48.048;-1.928;2024-03-08T09:28:49;19.38;;;7.10;;
45049;SDS011;61798;48.048;-1.928;2024-03-08T09:30:55;13.32;;;7.13;;
45049;SDS011;61798;48.048;-1.928;2024-03-08T09:33:01;12.32;;;6.93;;
45049;SDS011;61798;48.048;-1.928;2024-03-08T09:35:07;11.88;;;6.68;;
45049;SDS011;61798;48.048;-1.928;2024-03-08T09:37:13;12.10;;;6.85;;
45049;SDS011;61798;48.048;-1.928;2024-03-08T09:39:19;13.18;;;7.05;;
45049;SDS011;61798;48.048;-1.928;2024-03-08T09:41:26;16.83;;;7.18;;
45049;SDS011;61798;48.048;-1.928;2024-03-08T09:43:32;14.55;;;6.38;;
45049;SDS011;61798;48.048;-1.928;2024-03-08T09:45:38;20.98;;;7.10;;
45049;SDS011;61798;48.048;-1.928;2024-03-08T09:47:46;14.32;;;7.10;;
45049;SDS011;61798;48.048;-1.928;2024-03-08T09:49:54;21.52;;;7.63;;
45049;SDS011;61798;48.048;-1.928;2024-03-08T09:52:00;15.65;;;8.20;;
45049;SDS011;61798;48.048;-1.928;2024-03-08T09:54:05;12.30;;;6.72;;
45049;SDS011;61798;48.048;-1.928;2024-03-08T09:56:12;13.80;;;7.18;;
45049;SDS011;61798;48.048;-1.928;2024-03-08T09:58:18;13.73;;;7.75;;
45049;SDS011;61798;48.048;-1.928;2024-03-08T10:00:26;14.27;;;7.93;;
45049;SDS011;61798;48.048;-1.928;2024-03-08T10:02:32;13.90;;;6.65;;
45049;SDS011;61798;48.048;-1.928;2024-03-08T10:04:40;11.65;;;6.20;;
45049;SDS011;61798;48.048;-1.928;2024-03-08T10:06:51;12.45;;;6.60;;
45049;SDS011;61798;48.048;-1.928;2024-03-08T10:08:57;16.70;;;7.50;;
45049;SDS011;61798;48.048;-1.928;2024-03-08T10:11:03;11.93;;;7.00;;
45049;SDS011;61798;48.048;-1.928;2024-03-08T10:13:09;19.75;;;6.60;;
45049;SDS011;61798;48.048;-1.928;2024-03-08T10:15:17;16.63;;;7.55;;
45049;SDS011;61798;48.048;-1.928;2024-03-08T10:17:23;10.77;;;6.25;;
45049;SDS011;61798;48.048;-1.928;2024-03-08T10:19:29;11.10;;;6.07;;
45049;SDS011;61798;48.048;-1.928;2024-03-08T10:21:35;14.80;;;7.43;;
45049;SDS011;61798;48.048;-1.928;2024-03-08T10:23:41;13.25;;;6.72;;
45049;SDS011;61798;48.048;-1.928;2024-03-08T10:25:48;12.63;;;6.20;;
45049;SDS011;61798;48.048;-1.928;2024-03-08T10:27:55;12.02;;;6.30;;
45049;SDS011;61798;48.048;-1.928;2024-03-08T10:30:01;14.07;;;5.90;;
45049;SDS011;61798;48.048;-1.928;2024-03-08T10:32:07;12.82;;;6.70;;
45049;SDS011;61798;48.048;-1.928;2024-03-08T10:34:12;15.70;;;6.10;;
45049;SDS011;61798;48.048;-1.928;2024-03-08T10:36:18;15.95;;;6.70;;
45049;SDS011;61798;48.048;-1.928;2024-03-08T10:38:24;10.88;;;5.57;;
45049;SDS011;61798;48.048;-1.928;2024-03-08T10:40:32;15.57;;;6.70;;
45049;SDS011;61798;48.048;-1.928;2024-03-08T10:42:45;11.18;;;5.93;;
45049;SDS011;61798;48.048;-1.928;2024-03-08T10:45:05;12.95;;;5.28;;
45049;SDS011;61798;48.048;-1.928;2024-03-08T10:47:26;27.25;;;9.60;;
45049;SDS011;61798;48.048;-1.928;2024-03-08T10:49:37;34.35;;;12.77;;
45049;SDS011;61798;48.048;-1.928;2024-03-08T10:51:46;32.28;;;13.45;;
45049;SDS011;61798;48.048;-1.928;2024-03-08T10:53:57;26.17;;;12.02;;
45049;SDS011;61798;48.048;-1.928;2024-03-08T10:56:05;25.88;;;10.38;;
45049;SDS011;61798;48.048;-1.928;2024-03-08T10:58:10;33.17;;;15.20;;
45049;SDS011;61798;48.048;-1.928;2024-03-08T11:00:16;31.35;;;14.18;;
45049;SDS011;61798;48.048;-1.928;2024-03-08T11:02:24;19.63;;;9.88;;
45049;SDS011;61798;48.048;-1.928;2024-03-08T11:04:32;14.77;;;8.27;;
45049;SDS011;61798;48.048;-1.928;2024-03-08T11:08:45;14.32;;;7.00;;
45049;SDS011;61798;48.048;-1.928;2024-03-08T11:10:52;14.85;;;7.05;;
45049;SDS011;61798;48.048;-1.928;2024-03-08T11:13:01;11.48;;;6.65;;
45049;SDS011;61798;48.048;-1.928;2024-03-08T11:15:11;12.18;;;6.15;;
45049;SDS011;61798;48.048;-1.928;2024-03-08T11:19:33;9.50;;;5.30;;
45049;SDS011;61798;48.048;-1.928;2024-03-08T11:21:39;9.57;;;4.68;;
45049;SDS011;61798;48.048;-1.928;2024-03-08T11:23:59;10.10;;;4.47;;
45049;SDS011;61798;48.048;-1.928;2024-03-08T11:26:21;5.80;;;3.85;;
45049;SDS011;61798;48.048;-1.928;2024-03-08T11:28:29;9.05;;;3.83;;
45049;SDS011;61798;48.048;-1.928;2024-03-08T11:30:37;10.05;;;4.97;;
45049;SDS011;61798;48.048;-1.928;2024-03-08T11:32:44;8.02;;;4.22;;
45049;SDS011;61798;48.048;-1.928;2024-03-08T11:34:51;17.77;;;7.60;;
45049;SDS011;61798;48.048;-1.928;2024-03-08T11:36:58;9.05;;;4.55;;
45049;SDS011;61798;48.048;-1.928;2024-03-08T11:39:04;7.43;;;4.10;;
45049;SDS011;61798;48.048;-1.928;2024-03-08T11:41:20;10.23;;;4.65;;
45049;SDS011;61798;48.048;-1.928;2024-03-08T11:43:27;9.43;;;5.03;;
45049;SDS011;61798;48.048;-1.928;2024-03-08T11:45:36;6.88;;;4.20;;
45049;SDS011;61798;48.048;-1.928;2024-03-08T11:47:43;12.45;;;4.60;;
45049;SDS011;61798;48.048;-1.928;2024-03-08T11:49:51;8.00;;;4.30;;
45049;SDS011;61798;48.048;-1.928;2024-03-08T11:51:58;8.00;;;4.53;;
45049;SDS011;61798;48.048;-1.928;2024-03-08T11:54:04;6.65;;;4.00;;
45049;SDS011;61798;48.048;-1.928;2024-03-08T11:56:12;8.75;;;4.35;;
45049;SDS011;61798;48.048;-1.928;2024-03-08T11:58:19;7.70;;;4.40;;
45049;SDS011;61798;48.048;-1.928;2024-03-08T12:00:25;7.65;;;4.25;;
45049;SDS011;61798;48.048;-1.928;2024-03-08T12:02:32;15.35;;;7.97;;
45049;SDS011;61798;48.048;-1.928;2024-03-08T12:04:43;14.82;;;7.35;;
45049;SDS011;61798;48.048;-1.928;2024-03-08T12:06:51;12.82;;;6.43;;
45049;SDS011;61798;48.048;-1.928;2024-03-08T12:08:58;16.33;;;6.72;;
45049;SDS011;61798;48.048;-1.928;2024-03-08T12:11:04;18.23;;;8.98;;
45049;SDS011;61798;48.048;-1.928;2024-03-08T12:13:10;17.70;;;7.60;;
45049;SDS011;61798;48.048;-1.928;2024-03-08T12:15:19;15.95;;;7.75;;
45049;SDS011;61798;48.048;-1.928;2024-03-08T12:17:26;43.30;;;18.92;;
45049;SDS011;61798;48.048;-1.928;2024-03-08T12:19:32;24.63;;;11.70;;
45049;SDS011;61798;48.048;-1.928;2024-03-08T12:21:38;16.40;;;8.07;;
45049;SDS011;61798;48.048;-1.928;2024-03-08T12:24:09;23.10;;;9.55;;
45049;SDS011;61798;48.048;-1.928;2024-03-08T12:26:17;25.90;;;10.95;;